Time;durP1;ratioP1;P1;durP2;ratioP2;P2;SDS_P1;SDS_P2;PMS_P1;PMS_P2;Temp;Humidity;BMP_temperature;BMP_pressure;BME280_temperature;BME280_humidity;BME280_pressure;Samples;Min_cycle;Max_cycle;Signal;HPM_P1;HPM_P2
2022/03/04 00:00:54;;;;;;;;;;;4.50;52.60;;;;;;5079179;28;19927;-91
2022/03/04 00:03:19;;;;;;;;;;;4.50;52.70;;;;;;5082918;28;19916;-91
2022/03/04 00:05:45;;;;;;;;;;;4.60;53.20;;;;;;5095080;28;19923;-92
2022/03/04 00:08:10;;;;;;;;;;;4.60;53.10;;;;;;5099049;28;19912;-89
2022/03/04 00:10:36;;;;;;;;;;;4.60;53.10;;;;;;5103914;28;20274;-91
2022/03/04 00:13:02;;;;;;;;;;;4.60;53.20;;;;;;5078651;28;19955;-88
2022/03/04 00:15:28;;;;;;;;;;;4.60;53.00;;;;;;5087621;28;20011;-91
2022/03/04 00:17:53;;;;;;;;;;;4.60;53.00;;;;;;5077564;28;19913;-89
2022/03/04 00:20:19;;;;;;;;;;;4.60;53.20;;;;;;5094008;28;20002;-91
2022/03/04 00:22:45;;;;;;;;;;;4.60;53.20;;;;;;5084137;28;20410;-91
2022/03/04 00:25:10;;;;;;;;;;;4.60;53.00;;;;;;5076225;28;19920;-91
2022/03/04 00:27:36;;;;;;;;;;;4.50;53.00;;;;;;5078560;28;20010;-91
2022/03/04 00:30:02;;;;;;;;;;;4.50;52.60;;;;;;5077217;28;19961;-89
2022/03/04 00:32:28;;;;;;;;;;;4.40;52.40;;;;;;5103903;28;19932;-91
2022/03/04 00:34:53;;;;;;;;;;;4.40;52.30;;;;;;5075376;28;19915;-91
2022/03/04 00:37:19;;;;;;;;;;;4.30;52.50;;;;;;5100341;28;20420;-91
2022/03/04 00:39:45;;;;;;;;;;;4.30;52.40;;;;;;5079185;28;19912;-89
2022/03/04 00:42:11;;;;;;;;;;;4.30;52.40;;;;;;5095835;28;19924;-89
2022/03/04 00:44:36;;;;;;;;;;;4.20;52.30;;;;;;5083603;28;19928;-89
2022/03/04 00:47:02;;;;;;;;;;;4.20;52.10;;;;;;5079622;28;19923;-89
2022/03/04 00:49:28;;;;;;;;;;;4.10;51.80;;;;;;5101002;28;19999;-89
2022/03/04 00:51:54;;;;;;;;;;;4.00;51.60;;;;;;5094052;28;19920;-92
2022/03/04 00:54:20;;;;;;;;;;;4.00;51.70;;;;;;5082856;28;19923;-88
2022/03/04 00:56:45;;;;;;;;;;;3.90;51.60;;;;;;5086136;28;19917;-88
2022/03/04 00:59:11;;;;;;;;;;;3.80;51.60;;;;;;5100100;28;19908;-88
2022/03/04 01:01:37;;;;;;;;;;;3.80;51.80;;;;;;5077613;28;19924;-91
2022/03/04 01:04:02;;;;;;;;;;;3.70;51.90;;;;;;5062625;28;19956;-90
2022/03/04 01:06:28;;;;;;;;;;;3.70;51.80;;;;;;5062943;28;19920;-91
2022/03/04 01:08:54;;;;;;;;;;;3.70;51.90;;;;;;5057803;28;20416;-88
2022/03/04 01:11:19;;;;;;;;;;;3.60;51.90;;;;;;5075653;28;20255;-92
2022/03/04 01:13:45;;;;;;;;;;;3.60;52.00;;;;;;5065520;28;19919;-91
2022/03/04 01:16:10;;;;;;;;;;;3.50;51.90;;;;;;5063957;28;19921;-91
2022/03/04 01:18:36;;;;;;;;;;;3.50;51.80;;;;;;5063070;28;19920;-91
2022/03/04 01:21:01;;;;;;;;;;;3.50;51.70;;;;;;5082320;28;19956;-91
2022/03/04 01:23:27;;;;;;;;;;;3.40;51.60;;;;;;5079226;28;19913;-91
2022/03/04 01:25:52;;;;;;;;;;;3.40;51.60;;;;;;5062518;28;19927;-89
2022/03/04 01:28:20;;;;;;;;;;;3.30;51.40;;;;;;5085016;28;19912;-89
2022/03/04 01:30:46;;;;;;;;;;;3.20;51.30;;;;;;5067126;28;19917;-91
2022/03/04 01:33:11;;;;;;;;;;;3.20;51.10;;;;;;5061472;28;19934;-91
2022/03/04 01:35:37;;;;;;;;;;;3.10;51.00;;;;;;5062719;28;19927;-88
2022/03/04 01:38:03;;;;;;;;;;;3.00;51.00;;;;;;5081695;28;19904;-89
2022/03/04 01:40:28;;;;;;;;;;;3.00;51.00;;;;;;5059389;28;19920;-91
2022/03/04 01:42:54;;;;;;;;;;;3.00;51.10;;;;;;5061658;28;19927;-89
2022/03/04 01:45:20;;;;;;;;;;;2.90;51.20;;;;;;5077716;28;19923;-89
2022/03/04 01:47:46;;;;;;;;;;;2.90;51.40;;;;;;5059343;28;19912;-89
2022/03/04 01:50:12;;;;;;;;;;;2.80;51.40;;;;;;5062322;28;19912;-91
2022/03/04 01:52:37;;;;;;;;;;;2.80;51.50;;;;;;5061117;28;19927;-89
2022/03/04 01:55:04;;;;;;;;;;;2.80;51.90;;;;;;5091017;28;19966;-89
2022/03/04 01:57:29;;;;;;;;;;;2.80;52.20;;;;;;5084727;28;20282;-91
2022/03/04 01:59:55;;;;;;;;;;;2.80;52.40;;;;;;5060825;28;19974;-89
2022/03/04 02:02:20;;;;;;;;;;;2.70;52.50;;;;;;5094613;28;19962;-91
2022/03/04 02:04:48;;;;;;;;;;;2.80;52.30;;;;;;5085498;28;19920;-91
2022/03/04 02:07:14;;;;;;;;;;;2.70;52.30;;;;;;5082995;28;19962;-91
2022/03/04 02:09:40;;;;;;;;;;;2.80;52.50;;;;;;5083377;28;19929;-92
2022/03/04 02:12:05;;;;;;;;;;;2.70;52.40;;;;;;5103482;28;19928;-89
2022/03/04 02:14:31;;;;;;;;;;;2.70;52.50;;;;;;5110272;28;19904;-89
2022/03/04 02:16:57;;;;;;;;;;;2.70;52.50;;;;;;5115985;28;19966;-91
2022/03/04 02:19:23;;;;;;;;;;;2.80;53.10;;;;;;5093072;28;19908;-91
2022/03/04 02:21:53;;;;;;;;;;;2.80;53.30;;;;;;5083198;28;19927;-89
2022/03/04 02:24:20;;;;;;;;;;;2.80;53.10;;;;;;5077110;28;20013;-90
2022/03/04 02:26:45;;;;;;;;;;;2.80;53.30;;;;;;5083429;28;19976;-88
2022/03/04 02:29:11;;;;;;;;;;;2.80;52.90;;;;;;5105202;28;20322;-89
2022/03/04 02:31:37;;;;;;;;;;;2.80;53.00;;;;;;5083381;28;19935;-90
2022/03/04 02:34:03;;;;;;;;;;;2.80;53.10;;;;;;5099544;28;19908;-88
2022/03/04 02:36:28;;;;;;;;;;;2.80;53.10;;;;;;5083657;28;19955;-91
2022/03/04 02:38:54;;;;;;;;;;;2.90;52.80;;;;;;5097590;28;19973;-91
2022/03/04 02:41:20;;;;;;;;;;;2.80;52.50;;;;;;5097395;28;19916;-89
2022/03/04 02:43:45;;;;;;;;;;;2.80;52.70;;;;;;5096684;28;19963;-88
2022/03/04 02:46:13;;;;;;;;;;;2.80;53.20;;;;;;5085557;28;19973;-89
2022/03/04 02:48:39;;;;;;;;;;;2.80;53.10;;;;;;5081658;28;19931;-89
2022/03/04 02:51:07;;;;;;;;;;;2.80;52.70;;;;;;5095844;28;20258;-91
2022/03/04 02:53:33;;;;;;;;;;;2.80;52.40;;;;;;5078608;28;20002;-89
2022/03/04 02:55:58;;;;;;;;;;;2.80;52.60;;;;;;5079094;28;19904;-91
2022/03/04 02:58:24;;;;;;;;;;;2.80;52.80;;;;;;5076020;28;19930;-91
2022/03/04 03:00:49;;;;;;;;;;;2.70;52.70;;;;;;5106096;28;19916;-89
2022/03/04 03:03:15;;;;;;;;;;;2.70;52.50;;;;;;5099146;28;19912;-91
2022/03/04 03:05:40;;;;;;;;;;;2.70;52.50;;;;;;5089352;28;19935;-89
2022/03/04 03:08:06;;;;;;;;;;;2.70;52.60;;;;;;5083670;28;19936;-89
2022/03/04 03:10:32;;;;;;;;;;;2.70;52.80;;;;;;5081432;28;19934;-89
2022/03/04 03:12:58;;;;;;;;;;;2.70;52.90;;;;;;5066340;28;19920;-91
2022/03/04 03:15:24;;;;;;;;;;;2.70;53.30;;;;;;5083053;28;19910;-89
2022/03/04 03:17:49;;;;;;;;;;;2.70;53.40;;;;;;5080697;28;19999;-89
2022/03/04 03:20:15;;;;;;;;;;;2.70;53.40;;;;;;5080971;28;19918;-88
2022/03/04 03:22:40;;;;;;;;;;;2.70;53.50;;;;;;5103665;28;19916;-88
2022/03/04 03:25:06;;;;;;;;;;;2.70;53.60;;;;;;5077487;28;20436;-88
2022/03/04 03:27:32;;;;;;;;;;;2.70;53.50;;;;;;5106497;28;20203;-89
2022/03/04 03:29:57;;;;;;;;;;;2.70;53.50;;;;;;5080465;28;19920;-91
2022/03/04 03:32:23;;;;;;;;;;;2.70;53.50;;;;;;5079222;28;19923;-92
2022/03/04 03:34:48;;;;;;;;;;;2.70;53.50;;;;;;5097103;28;19916;-91
2022/03/04 03:37:14;;;;;;;;;;;2.70;53.50;;;;;;5095715;28;19981;-92
2022/03/04 03:39:39;;;;;;;;;;;2.70;53.30;;;;;;5079446;28;19918;-91
2022/03/04 03:42:05;;;;;;;;;;;2.70;53.50;;;;;;5095355;28;20302;-89
2022/03/04 03:44:31;;;;;;;;;;;2.70;53.30;;;;;;5077171;28;19927;-92
2022/03/04 03:46:56;;;;;;;;;;;2.70;53.40;;;;;;5074731;28;19923;-89
2022/03/04 03:49:22;;;;;;;;;;;2.70;53.70;;;;;;5086893;28;19962;-88
2022/03/04 03:51:48;;;;;;;;;;;2.70;53.90;;;;;;5077685;28;19924;-91
2022/03/04 03:54:14;;;;;;;;;;;2.70;53.80;;;;;;5082600;28;19923;-91
2022/03/04 03:56:39;;;;;;;;;;;2.70;53.90;;;;;;5081486;28;19966;-88
2022/03/04 03:59:05;;;;;;;;;;;2.70;54.00;;;;;;5077439;28;19930;-88
2022/03/04 04:01:30;;;;;;;;;;;2.70;53.80;;;;;;5076201;28;19939;-90
2022/03/04 04:03:56;;;;;;;;;;;2.70;54.00;;;;;;5076171;28;19927;-90
2022/03/04 04:06:21;;;;;;;;;;;2.70;53.90;;;;;;5076872;28;20450;-88
2022/03/04 04:08:47;;;;;;;;;;;2.70;54.00;;;;;;5099612;28;20382;-89
2022/03/04 04:11:13;;;;;;;;;;;2.80;54.40;;;;;;5079662;28;19928;-91
2022/03/04 04:13:38;;;;;;;;;;;2.90;54.80;;;;;;5097040;28;19916;-91
2022/03/04 04:16:04;;;;;;;;;;;3.10;55.00;;;;;;5081732;28;19923;-88
2022/03/04 04:18:29;;;;;;;;;;;3.20;54.80;;;;;;5078527;28;19912;-91
2022/03/04 04:20:55;;;;;;;;;;;3.30;54.80;;;;;;5077588;28;20093;-90
2022/03/04 04:23:21;;;;;;;;;;;3.50;54.70;;;;;;5103121;28;19920;-92
2022/03/04 04:25:46;;;;;;;;;;;3.60;54.60;;;;;;5092926;28;19916;-89
2022/03/04 04:28:12;;;;;;;;;;;3.70;54.60;;;;;;5076604;28;19912;-90
2022/03/04 04:30:37;;;;;;;;;;;3.80;54.60;;;;;;5076208;28;19928;-89
2022/03/04 04:33:03;;;;;;;;;;;3.90;54.60;;;;;;5082293;28;19909;-88
2022/03/04 04:35:28;;;;;;;;;;;4.00;54.40;;;;;;5080461;28;19943;-91
2022/03/04 04:37:54;;;;;;;;;;;4.00;54.30;;;;;;5076786;28;19938;-88
2022/03/04 04:40:20;;;;;;;;;;;4.10;54.10;;;;;;5074745;28;19919;-88
2022/03/04 04:42:45;;;;;;;;;;;4.20;54.10;;;;;;5078497;28;19924;-91
2022/03/04 04:45:11;;;;;;;;;;;4.30;54.20;;;;;;5060849;28;19931;-91
2022/03/04 04:47:37;;;;;;;;;;;4.30;54.10;;;;;;5079092;28;19924;-88
2022/03/04 04:50:03;;;;;;;;;;;4.40;54.10;;;;;;5092014;28;20349;-88
2022/03/04 04:52:29;;;;;;;;;;;4.40;54.10;;;;;;5072106;28;19920;-92
2022/03/04 04:54:54;;;;;;;;;;;4.40;54.40;;;;;;5083497;28;20047;-89
2022/03/04 04:57:20;;;;;;;;;;;4.50;54.60;;;;;;5101923;28;19916;-90
2022/03/04 04:59:45;;;;;;;;;;;4.50;54.90;;;;;;5100066;28;19940;-91
2022/03/04 05:02:11;;;;;;;;;;;4.60;54.80;;;;;;5096438;28;19923;-90
2022/03/04 05:04:36;;;;;;;;;;;4.60;55.00;;;;;;5062925;28;19966;-92
2022/03/04 05:07:03;;;;;;;;;;;4.70;54.90;;;;;;5060896;28;20397;-90
2022/03/04 05:09:28;;;;;;;;;;;4.70;54.90;;;;;;5061393;28;19913;-91
2022/03/04 05:11:54;;;;;;;;;;;4.80;54.70;;;;;;5087344;28;19915;-89
2022/03/04 05:14:19;;;;;;;;;;;4.80;54.60;;;;;;5091457;28;19916;-90
2022/03/04 05:16:45;;;;;;;;;;;4.90;54.50;;;;;;5080884;28;19920;-91
2022/03/04 05:19:10;;;;;;;;;;;4.90;54.40;;;;;;5084115;28;19951;-89
2022/03/04 05:21:36;;;;;;;;;;;5.00;54.30;;;;;;5080843;28;19920;-91
2022/03/04 05:24:02;;;;;;;;;;;5.00;54.30;;;;;;5090553;28;19923;-89
2022/03/04 05:26:35;;;;;;;;;;;5.00;54.30;;;;;;5112440;28;19920;-91
2022/03/04 05:29:02;;;;;;;;;;;5.10;54.30;;;;;;5090115;28;19892;-91
2022/03/04 05:31:27;;;;;;;;;;;5.00;54.40;;;;;;5095646;28;19975;-89
2022/03/04 05:33:53;;;;;;;;;;;5.10;54.40;;;;;;5090369;28;19915;-92
2022/03/04 05:36:19;;;;;;;;;;;5.10;54.40;;;;;;5110775;28;20389;-89
2022/03/04 05:38:45;;;;;;;;;;;5.10;54.40;;;;;;5086800;28;19995;-89
2022/03/04 05:41:11;;;;;;;;;;;5.10;54.50;;;;;;5068819;28;19920;-90
2022/03/04 05:43:38;;;;;;;;;;;5.10;54.50;;;;;;5101693;28;19916;-91
2022/03/04 05:46:04;;;;;;;;;;;5.10;54.60;;;;;;5099230;28;19955;-90
2022/03/04 05:48:30;;;;;;;;;;;5.10;54.50;;;;;;5103380;28;19920;-91
2022/03/04 05:50:55;;;;;;;;;;;5.10;54.50;;;;;;5101635;28;19923;-92
2022/03/04 05:53:21;;;;;;;;;;;5.20;54.50;;;;;;5107578;28;19908;-91
2022/03/04 05:55:47;;;;;;;;;;;5.20;54.50;;;;;;5109818;28;20018;-89
2022/03/04 05:58:13;;;;;;;;;;;5.20;54.50;;;;;;5083280;28;19976;-89
2022/03/04 06:00:38;;;;;;;;;;;5.20;54.40;;;;;;5079781;28;19917;-92
2022/03/04 06:05:37;;;;;;;;;;;5.20;54.40;;;;;;5054892;28;19938;-86
2022/03/04 06:08:03;;;;;;;;;;;5.30;54.40;;;;;;5041639;28;19912;-86
2022/03/04 06:10:28;;;;;;;;;;;5.20;54.40;;;;;;5054782;28;20336;-87
2022/03/04 06:12:54;;;;;;;;;;;5.20;54.40;;;;;;5057848;28;19924;-87
2022/03/04 06:15:19;;;;;;;;;;;5.20;54.40;;;;;;5046119;28;20334;-87
2022/03/04 06:17:48;;;;;;;;;;;5.20;54.40;;;;;;5055439;28;19913;-86
2022/03/04 06:20:14;;;;;;;;;;;5.20;54.40;;;;;;5026241;28;19917;-86
2022/03/04 06:22:39;;;;;;;;;;;5.20;54.40;;;;;;5042509;28;19921;-86
2022/03/04 06:25:05;;;;;;;;;;;5.20;54.40;;;;;;5052174;28;19928;-86
2022/03/04 06:27:30;;;;;;;;;;;5.30;54.40;;;;;;5049253;28;19913;-86
2022/03/04 06:29:56;;;;;;;;;;;5.30;54.40;;;;;;5045768;28;20392;-86
2022/03/04 06:32:21;;;;;;;;;;;5.30;54.40;;;;;;5028408;28;20284;-85
2022/03/04 06:34:47;;;;;;;;;;;5.30;54.40;;;;;;5053132;28;19916;-85
2022/03/04 06:37:12;;;;;;;;;;;5.30;54.40;;;;;;5036384;28;20017;-86
2022/03/04 06:39:39;;;;;;;;;;;5.30;54.40;;;;;;5030845;28;19917;-85
2022/03/04 06:42:04;;;;;;;;;;;5.40;54.40;;;;;;5029769;28;19928;-86
2022/03/04 06:44:30;;;;;;;;;;;5.40;54.40;;;;;;5034457;28;19913;-85
2022/03/04 06:46:55;;;;;;;;;;;5.50;54.30;;;;;;5055104;28;19945;-87
2022/03/04 06:49:21;;;;;;;;;;;5.50;54.30;;;;;;5045210;28;19913;-86
2022/03/04 06:51:46;;;;;;;;;;;5.60;54.30;;;;;;5043579;28;19983;-85
2022/03/04 06:54:11;;;;;;;;;;;5.70;54.20;;;;;;5046395;28;19916;-86
2022/03/04 06:56:38;;;;;;;;;;;5.70;54.00;;;;;;5033490;28;19921;-86
2022/03/04 06:59:03;;;;;;;;;;;5.70;53.80;;;;;;5036533;28;19917;-86
2022/03/04 07:01:29;;;;;;;;;;;5.70;53.70;;;;;;5048927;28;19955;-86
2022/03/04 07:03:54;;;;;;;;;;;5.80;53.60;;;;;;5050136;28;19920;-86
2022/03/04 07:06:20;;;;;;;;;;;5.70;53.60;;;;;;5045843;28;20268;-86
2022/03/04 07:08:45;;;;;;;;;;;5.70;53.60;;;;;;5028119;28;19956;-85
2022/03/04 07:11:11;;;;;;;;;;;5.80;53.60;;;;;;5049620;28;20076;-86
2022/03/04 07:13:36;;;;;;;;;;;5.80;53.60;;;;;;5017929;28;19991;-85
2022/03/04 07:16:02;;;;;;;;;;;5.80;53.50;;;;;;5037386;28;19927;-85
2022/03/04 07:18:31;;;;;;;;;;;5.80;53.50;;;;;;5078373;28;19952;-86
2022/03/04 07:20:57;;;;;;;;;;;5.90;53.40;;;;;;5070018;28;20019;-87
2022/03/04 07:23:23;;;;;;;;;;;5.90;53.30;;;;;;5052909;28;20359;-87
2022/03/04 07:25:48;;;;;;;;;;;6.00;53.30;;;;;;5070325;28;19958;-87
2022/03/04 07:28:14;;;;;;;;;;;6.00;53.10;;;;;;5052072;28;19916;-86
2022/03/04 07:30:39;;;;;;;;;;;6.00;53.10;;;;;;5070069;28;20011;-86
2022/03/04 07:33:05;;;;;;;;;;;6.10;53.10;;;;;;5050011;28;19976;-86
2022/03/04 07:35:31;;;;;;;;;;;6.10;53.00;;;;;;5068715;28;19921;-87
2022/03/04 07:37:56;;;;;;;;;;;6.10;52.90;;;;;;5055308;28;20291;-87
2022/03/04 07:40:22;;;;;;;;;;;6.10;52.80;;;;;;5069322;28;19917;-87
2022/03/04 07:42:48;;;;;;;;;;;6.20;52.80;;;;;;5064165;28;19955;-86
2022/03/04 07:45:14;;;;;;;;;;;6.10;52.80;;;;;;5048735;28;19921;-86
2022/03/04 07:47:41;;;;;;;;;;;6.20;53.00;;;;;;5048684;28;19920;-87
2022/03/04 07:50:08;;;;;;;;;;;6.30;52.90;;;;;;5051310;28;20291;-87
2022/03/04 07:52:33;;;;;;;;;;;6.30;52.80;;;;;;5047620;28;19917;-87
2022/03/04 07:55:03;;;;;;;;;;;6.40;52.70;;;;;;5053025;28;19920;-85
2022/03/04 07:57:28;;;;;;;;;;;6.50;52.50;;;;;;5077511;28;19917;-85
2022/03/04 07:59:54;;;;;;;;;;;6.50;52.60;;;;;;5040253;28;19913;-85
2022/03/04 08:02:20;;;;;;;;;;;6.50;52.60;;;;;;5051518;28;19921;-86
2022/03/04 08:04:46;;;;;;;;;;;6.70;52.60;;;;;;5050062;28;19928;-86
2022/03/04 08:07:12;;;;;;;;;;;6.70;52.20;;;;;;5052353;28;20288;-86
2022/03/04 08:09:38;;;;;;;;;;;6.70;52.20;;;;;;5054245;28;20339;-86
2022/03/04 08:12:03;;;;;;;;;;;6.80;52.20;;;;;;5066053;28;19963;-85
2022/03/04 08:14:29;;;;;;;;;;;6.90;52.20;;;;;;5006574;28;1779421;-86
2022/03/04 08:16:55;;;;;;;;;;;7.10;52.30;;;;;;5053857;28;19956;-87
2022/03/04 08:19:20;;;;;;;;;;;7.30;52.30;;;;;;5072195;28;19922;-86
2022/03/04 08:21:47;;;;;;;;;;;7.40;51.70;;;;;;5072452;28;19920;-86
2022/03/04 08:24:12;;;;;;;;;;;7.60;52.10;;;;;;5071898;28;19921;-87
2022/03/04 08:26:38;;;;;;;;;;;7.80;51.30;;;;;;5054643;28;20310;-87
2022/03/04 08:29:07;;;;;;;;;;;8.00;51.20;;;;;;5072473;28;21418;-86
2022/03/04 08:31:32;;;;;;;;;;;8.20;51.50;;;;;;5072739;28;20439;-87
2022/03/04 08:33:58;;;;;;;;;;;8.40;50.70;;;;;;5053925;28;19993;-86
2022/03/04 08:36:24;;;;;;;;;;;8.40;50.40;;;;;;5071081;28;19917;-86
2022/03/04 08:38:49;;;;;;;;;;;8.60;49.80;;;;;;5054150;28;19920;-87
2022/03/04 08:41:15;;;;;;;;;;;8.70;49.10;;;;;;5071619;28;19912;-85
2022/03/04 08:43:41;;;;;;;;;;;9.00;48.90;;;;;;5070445;28;19966;-86
2022/03/04 08:46:06;;;;;;;;;;;9.40;50.00;;;;;;5052896;28;19921;-86
2022/03/04 08:48:32;;;;;;;;;;;9.90;49.50;;;;;;5053197;28;19952;-87
2022/03/04 08:50:57;;;;;;;;;;;10.50;48.20;;;;;;5053362;28;19927;-86
2022/03/04 08:53:22;;;;;;;;;;;11.10;47.70;;;;;;5052170;28;19934;-87
2022/03/04 08:55:50;;;;;;;;;;;11.70;47.40;;;;;;5070236;28;19924;-86
2022/03/04 08:58:16;;;;;;;;;;;12.30;46.70;;;;;;5071207;28;19916;-86
2022/03/04 09:00:41;;;;;;;;;;;12.80;45.90;;;;;;5070590;28;19963;-86
2022/03/04 09:03:07;;;;;;;;;;;13.40;44.20;;;;;;5070180;28;19916;-86
2022/03/04 09:05:32;;;;;;;;;;;13.80;43.00;;;;;;5052284;28;19920;-85
2022/03/04 09:07:59;;;;;;;;;;;14.20;42.10;;;;;;5068055;28;20239;-86
2022/03/04 09:10:24;;;;;;;;;;;14.50;40.50;;;;;;5069972;28;20325;-86
2022/03/04 09:12:49;;;;;;;;;;;14.70;39.40;;;;;;5070446;28;19920;-86
2022/03/04 09:15:15;;;;;;;;;;;14.90;38.30;;;;;;5069801;28;19968;-86
2022/03/04 09:17:40;;;;;;;;;;;15.00;36.30;;;;;;5070753;28;19921;-86
2022/03/04 09:20:07;;;;;;;;;;;14.90;35.90;;;;;;5052606;28;20351;-86
2022/03/04 09:22:32;;;;;;;;;;;14.90;34.50;;;;;;5068597;28;19924;-86
2022/03/04 09:24:58;;;;;;;;;;;14.90;35.20;;;;;;5051605;28;19923;-85
2022/03/04 09:27:27;;;;;;;;;;;15.00;35.50;;;;;;5051684;28;19959;-85
2022/03/04 09:29:52;;;;;;;;;;;15.30;35.10;;;;;;5061914;28;20405;-87
2022/03/04 09:32:18;;;;;;;;;;;15.30;34.30;;;;;;5044465;28;19917;-86
2022/03/04 09:34:43;;;;;;;;;;;15.50;34.40;;;;;;5051217;28;19917;-87
2022/03/04 09:37:08;;;;;;;;;;;15.50;33.60;;;;;;5050766;28;19924;-87
2022/03/04 09:39:34;;;;;;;;;;;15.60;33.70;;;;;;5063832;28;19917;-87
2022/03/04 09:42:00;;;;;;;;;;;15.70;33.80;;;;;;5046910;28;19921;-86
2022/03/04 09:44:25;;;;;;;;;;;16.00;34.00;;;;;;5063116;28;19964;-87
2022/03/04 09:46:52;;;;;;;;;;;16.10;32.50;;;;;;5048954;28;19924;-86
2022/03/04 09:49:17;;;;;;;;;;;16.10;32.00;;;;;;5072392;28;20046;-86
2022/03/04 09:51:43;;;;;;;;;;;16.10;32.00;;;;;;5049367;28;20007;-87
2022/03/04 09:54:09;;;;;;;;;;;16.10;32.00;;;;;;5047779;28;19912;-87
2022/03/04 09:56:34;;;;;;;;;;;16.20;31.70;;;;;;5064104;28;20566;-86
2022/03/04 09:59:00;;;;;;;;;;;16.30;32.20;;;;;;5066857;28;19952;-87
2022/03/04 10:01:25;;;;;;;;;;;16.50;31.90;;;;;;5065369;28;19924;-86
2022/03/04 10:03:52;;;;;;;;;;;16.50;31.50;;;;;;5047099;28;20030;-85
2022/03/04 10:06:18;;;;;;;;;;;16.70;31.30;;;;;;5066179;28;19962;-85
2022/03/04 10:08:45;;;;;;;;;;;16.70;30.60;;;;;;5061574;28;19913;-85
2022/03/04 10:11:11;;;;;;;;;;;16.70;30.60;;;;;;5047762;28;19988;-85
2022/03/04 10:13:39;;;;;;;;;;;16.70;30.90;;;;;;5046481;28;20366;-87
2022/03/04 10:16:05;;;;;;;;;;;16.80;31.10;;;;;;5066051;28;20326;-87
2022/03/04 10:18:30;;;;;;;;;;;16.90;30.80;;;;;;5049286;28;19917;-87
2022/03/04 10:20:56;;;;;;;;;;;17.00;31.10;;;;;;5046207;28;19921;-88
2022/03/04 10:23:22;;;;;;;;;;;17.20;30.60;;;;;;5036661;28;20384;-87
2022/03/04 10:25:50;;;;;;;;;;;17.20;29.80;;;;;;5060066;28;20264;-87
2022/03/04 10:28:16;;;;;;;;;;;17.20;29.70;;;;;;5045008;28;19921;-87
2022/03/04 10:30:43;;;;;;;;;;;17.30;29.60;;;;;;5050754;28;19970;-86
2022/03/04 10:33:09;;;;;;;;;;;17.30;29.50;;;;;;5053480;28;20395;-86
2022/03/04 10:35:35;;;;;;;;;;;17.30;29.40;;;;;;5047283;28;19920;-86
2022/03/04 10:38:00;;;;;;;;;;;17.40;29.40;;;;;;5044120;28;19932;-86
2022/03/04 10:40:29;;;;;;;;;;;17.50;29.60;;;;;;5042439;28;19928;-86
2022/03/04 10:43:02;;;;;;;;;;;17.60;29.60;;;;;;5044190;28;19920;-89
2022/03/04 10:45:29;;;;;;;;;;;17.80;29.30;;;;;;5066457;28;19954;-87
2022/03/04 10:48:00;;;;;;;;;;;17.90;29.20;;;;;;5045966;28;19916;-86
2022/03/04 10:50:26;;;;;;;;;;;18.00;29.20;;;;;;5049878;28;19916;-86
2022/03/04 10:52:53;;;;;;;;;;;18.10;28.60;;;;;;5062170;28;19924;-87
2022/03/04 10:55:25;;;;;;;;;;;18.20;28.50;;;;;;5059023;28;19913;-87
2022/03/04 10:57:50;;;;;;;;;;;18.30;28.70;;;;;;5051036;28;20287;-87
2022/03/04 11:00:22;;;;;;;;;;;18.30;28.50;;;;;;5063439;28;19917;-86
2022/03/04 11:02:48;;;;;;;;;;;18.40;28.20;;;;;;5066025;28;19916;-86
2022/03/04 11:05:14;;;;;;;;;;;18.40;28.10;;;;;;5072818;28;19921;-86
2022/03/04 11:07:42;;;;;;;;;;;18.40;27.90;;;;;;5040652;28;19920;-86
2022/03/04 11:10:08;;;;;;;;;;;18.40;28.00;;;;;;5061666;28;19971;-86
2022/03/04 11:12:34;;;;;;;;;;;18.60;28.00;;;;;;5069188;28;19912;-86
2022/03/04 11:15:00;;;;;;;;;;;18.70;27.70;;;;;;5048933;28;20003;-86
2022/03/04 11:17:28;;;;;;;;;;;18.70;27.50;;;;;;5062273;28;19920;-86
2022/03/04 11:19:53;;;;;;;;;;;18.80;27.50;;;;;;5039645;28;19917;-87
2022/03/04 11:22:19;;;;;;;;;;;18.80;27.00;;;;;;5042854;28;20339;-87
2022/03/04 11:24:46;;;;;;;;;;;18.80;27.00;;;;;;5048775;28;19921;-87
2022/03/04 11:27:14;;;;;;;;;;;18.80;26.90;;;;;;5044422;28;19924;-86
2022/03/04 11:29:39;;;;;;;;;;;18.80;26.80;;;;;;5046107;28;20360;-87
2022/03/04 11:32:06;;;;;;;;;;;18.80;26.90;;;;;;5065920;28;19923;-87
2022/03/04 11:34:35;;;;;;;;;;;18.80;26.70;;;;;;5049251;28;19959;-86
2022/03/04 11:37:04;;;;;;;;;;;18.70;26.70;;;;;;5060939;28;19917;-86
2022/03/04 11:39:30;;;;;;;;;;;18.70;27.00;;;;;;5066950;28;19916;-85
2022/03/04 11:41:55;;;;;;;;;;;18.80;26.90;;;;;;5065537;28;19920;-86
2022/03/04 11:44:22;;;;;;;;;;;18.80;26.80;;;;;;5053105;28;19919;-86
2022/03/04 11:46:49;;;;;;;;;;;18.80;26.90;;;;;;5065004;28;20266;-86
2022/03/04 11:49:25;;;;;;;;;;;18.80;26.70;;;;;;5058728;28;20510;-87
2022/03/04 11:52:10;;;;;;;;;;;18.90;26.80;;;;;;5051868;28;19924;-85
2022/03/04 11:54:45;;;;;;;;;;;18.90;26.40;;;;;;5049617;28;19966;-87
2022/03/04 11:57:15;;;;;;;;;;;18.70;26.30;;;;;;5067354;28;20281;-85
2022/03/04 11:59:47;;;;;;;;;;;18.70;26.30;;;;;;5058345;28;19917;-85
2022/03/04 12:02:17;;;;;;;;;;;18.60;26.40;;;;;;5057823;28;19973;-86
2022/03/04 12:04:43;;;;;;;;;;;18.60;26.40;;;;;;5065049;28;20010;-87
2022/03/04 12:07:09;;;;;;;;;;;18.60;26.40;;;;;;5050569;28;19999;-85
2022/03/04 12:09:35;;;;;;;;;;;18.50;26.50;;;;;;5063382;28;19919;-86
2022/03/04 12:12:23;;;;;;;;;;;18.40;26.70;;;;;;5052534;28;19913;-86
2022/03/04 12:14:49;;;;;;;;;;;18.60;26.80;;;;;;5063806;28;20272;-88
2022/03/04 12:17:15;;;;;;;;;;;18.70;26.80;;;;;;5045798;28;19916;-86
2022/03/04 12:19:41;;;;;;;;;;;18.70;26.50;;;;;;5041261;28;19916;-86
2022/03/04 12:22:07;;;;;;;;;;;18.70;26.40;;;;;;5043646;28;20406;-86
2022/03/04 12:24:33;;;;;;;;;;;18.50;26.30;;;;;;5045024;28;19924;-86
2022/03/04 12:27:00;;;;;;;;;;;18.40;26.20;;;;;;5045699;28;19940;-87
2022/03/04 12:29:46;;;;;;;;;;;18.30;26.60;;;;;;5069760;28;19912;-86
2022/03/04 12:32:12;;;;;;;;;;;18.30;26.60;;;;;;5070552;28;19919;-86
2022/03/04 12:34:50;;;;;;;;;;;18.20;26.80;;;;;;5043734;28;19920;-87
2022/03/04 12:37:15;;;;;;;;;;;18.10;27.00;;;;;;5066563;28;19938;-86
2022/03/04 12:39:46;;;;;;;;;;;18.00;26.90;;;;;;5065436;28;20697;-86
2022/03/04 12:42:11;;;;;;;;;;;17.80;27.10;;;;;;5058601;28;19981;-86
2022/03/04 12:44:37;;;;;;;;;;;17.80;27.00;;;;;;5061940;28;19928;-87
2022/03/04 12:47:03;;;;;;;;;;;17.60;27.40;;;;;;5041120;28;19975;-86
2022/03/04 12:49:29;;;;;;;;;;;17.60;27.60;;;;;;5065199;28;19920;-86
2022/03/04 12:51:55;;;;;;;;;;;17.60;27.70;;;;;;5044226;28;19913;-86
2022/03/04 12:54:22;;;;;;;;;;;17.50;27.70;;;;;;5061606;28;19909;-86
2022/03/04 12:56:52;;;;;;;;;;;17.40;27.80;;;;;;5044350;28;20364;-86
2022/03/04 12:59:17;;;;;;;;;;;17.30;28.20;;;;;;5060170;28;19921;-86
2022/03/04 13:01:43;;;;;;;;;;;17.20;28.10;;;;;;5063853;28;19966;-86
2022/03/04 13:04:09;;;;;;;;;;;17.00;28.10;;;;;;5046112;28;20383;-87
2022/03/04 13:06:35;;;;;;;;;;;16.90;28.50;;;;;;5040525;28;19962;-87
2022/03/04 13:09:04;;;;;;;;;;;16.80;28.60;;;;;;5053134;28;20245;-87
2022/03/04 13:11:38;;;;;;;;;;;16.50;28.70;;;;;;5045282;28;19917;-86
2022/03/04 13:14:05;;;;;;;;;;;16.30;29.10;;;;;;5070286;28;19966;-87
2022/03/04 13:16:31;;;;;;;;;;;15.80;29.80;;;;;;5066970;28;19917;-87
2022/03/04 13:18:58;;;;;;;;;;;15.30;30.40;;;;;;5057037;28;19921;-86
2022/03/04 13:21:34;;;;;;;;;;;14.80;31.00;;;;;;5070643;28;19919;-86
2022/03/04 13:24:05;;;;;;;;;;;14.30;31.90;;;;;;5070658;28;19921;-87
2022/03/04 13:26:31;;;;;;;;;;;13.90;32.70;;;;;;5050201;28;19913;-86
2022/03/04 13:28:59;;;;;;;;;;;13.50;33.40;;;;;;5049095;28;20296;-86
2022/03/04 13:31:26;;;;;;;;;;;13.20;33.90;;;;;;5071548;28;19917;-86
2022/03/04 13:33:55;;;;;;;;;;;13.00;34.30;;;;;;5056257;28;19920;-86
2022/03/04 13:36:58;;;;;;;;;;;12.70;34.60;;;;;;5045135;28;19920;-86
2022/03/04 13:39:26;;;;;;;;;;;12.60;35.00;;;;;;4993049;28;19962;-86
2022/03/04 13:42:10;;;;;;;;;;;12.40;35.50;;;;;;5057147;28;20679;-86
2022/03/04 13:44:46;;;;;;;;;;;12.30;35.80;;;;;;5048842;28;19952;-87
2022/03/04 13:47:12;;;;;;;;;;;12.20;36.00;;;;;;5061710;28;19946;-87
2022/03/04 13:49:45;;;;;;;;;;;12.10;36.10;;;;;;5049514;28;19917;-86
2022/03/04 13:52:11;;;;;;;;;;;12.00;36.40;;;;;;5048814;28;20296;-86
2022/03/04 13:54:46;;;;;;;;;;;11.80;36.80;;;;;;5048921;28;20003;-86
2022/03/04 13:57:29;;;;;;;;;;;11.70;36.90;;;;;;5044318;28;20372;-86
2022/03/04 13:59:58;;;;;;;;;;;11.60;37.10;;;;;;5053757;28;20354;-87
2022/03/04 14:02:26;;;;;;;;;;;11.60;37.10;;;;;;5074999;28;19942;-87
2022/03/04 14:04:55;;;;;;;;;;;11.50;37.60;;;;;;5075018;28;19916;-87
2022/03/04 14:07:21;;;;;;;;;;;11.40;37.80;;;;;;5066069;28;19912;-87
2022/03/04 14:09:55;;;;;;;;;;;11.30;37.90;;;;;;5052213;28;19920;-87
2022/03/04 14:12:21;;;;;;;;;;;11.20;38.00;;;;;;5049821;28;19908;-87
2022/03/04 14:14:47;;;;;;;;;;;11.20;38.30;;;;;;5064944;28;19928;-88
2022/03/04 14:17:13;;;;;;;;;;;11.10;38.30;;;;;;5052041;28;19912;-88
2022/03/04 14:19:41;;;;;;;;;;;11.10;38.50;;;;;;5050914;28;20360;-86
2022/03/04 14:22:07;;;;;;;;;;;11.10;38.60;;;;;;5073739;28;19920;-88
2022/03/04 14:24:33;;;;;;;;;;;11.00;38.60;;;;;;5052770;28;19922;-86